Time;durP1;ratioP1;P1;durP2;ratioP2;P2;SDS_P1;SDS_P2;PMS_P1;PMS_P2;Temp;Humidity;BMP_temperature;BMP_pressure;BME280_temperature;BME280_humidity;BME280_pressure;Samples;Min_cycle;Max_cycle;Signal;HPM_P1;HPM_P2
2022/03/16 00:00:18;;;;;;;60.92;37.85;;;;;;;2.91;58.56;94103.94;5009387;28;20045;-79
2022/03/16 00:02:45;;;;;;;24.30;15.02;;;;;;;2.94;58.46;94102.84;5009367;28;20100;-80
2022/03/16 00:05:12;;;;;;;34.63;16.70;;;;;;;2.95;57.03;94084.16;5009135;28;20045;-80
2022/03/16 00:07:39;;;;;;;27.67;14.82;;;;;;;2.25;57.29;93983.91;5009184;28;20050;-80
2022/03/16 00:10:09;;;;;;;22.73;12.13;;;;;;;2.82;57.32;94069.25;5009487;28;20042;-80
2022/03/16 00:12:36;;;;;;;22.75;11.75;;;;;;;2.91;57.72;94080.28;5009114;28;20050;-79
2022/03/16 00:15:04;;;;;;;26.73;12.93;;;;;;;3.02;57.50;94084.38;5008927;28;20060;-79
2022/03/16 00:17:31;;;;;;;25.58;10.73;;;;;;;3.03;57.69;94081.72;5009513;28;20045;-80
2022/03/16 00:19:58;;;;;;;27.67;14.00;;;;;;;3.09;57.47;94090.50;5009178;28;20050;-80
2022/03/16 00:22:25;;;;;;;17.73;10.13;;;;;;;3.08;57.89;94093.97;5009226;28;20053;-80
2022/03/16 00:24:52;;;;;;;24.42;15.07;;;;;;;2.82;58.14;94048.16;5009201;28;20050;-80
2022/03/16 00:27:20;;;;;;;23.00;11.68;;;;;;;3.12;58.27;94092.75;5009136;28;20392;-80
2022/03/16 00:29:47;;;;;;;21.65;11.60;;;;;;;3.03;58.23;94058.88;5009302;28;20050;-80
2022/03/16 00:32:14;;;;;;;16.95;10.40;;;;;;;2.40;56.77;93962.22;5008973;28;20057;-80
2022/03/16 00:34:49;;;;;;;28.08;13.70;;;;;;;3.20;56.88;94087.75;5009494;28;20349;-81
2022/03/16 00:37:23;;;;;;;20.35;10.38;;;;;;;3.24;57.67;94069.72;5008726;28;20141;-81
2022/03/16 00:39:56;;;;;;;18.33;10.85;;;;;;;3.19;57.17;94044.72;5008684;28;20152;-82
2022/03/16 00:42:24;;;;;;;17.50;8.45;;;;;;;2.79;56.86;93986.59;5008848;28;20150;-81
2022/03/16 00:44:52;;;;;;;16.40;9.20;;;;;;;3.11;56.87;94027.69;5009421;28;20499;-81
2022/03/16 00:47:19;;;;;;;16.65;9.02;;;;;;;3.11;57.82;94022.63;5009862;28;20431;-81
2022/03/16 00:49:46;;;;;;;54.28;22.58;;;;;;;3.23;57.18;94038.44;5009414;28;20049;-81
2022/03/16 00:52:12;;;;;;;51.65;17.38;;;;;;;3.06;57.65;94004.50;5008899;28;20057;-81
2022/03/16 00:54:39;;;;;;;42.10;17.80;;;;;;;3.28;56.96;94017.72;5005944;28;20051;-81
2022/03/16 00:57:06;;;;;;;53.92;19.50;;;;;;;3.28;57.09;94010.88;5009220;28;20514;-81
2022/03/16 00:59:34;;;;;;;38.17;16.52;;;;;;;3.13;57.66;93984.38;5009009;28;20049;-80
2022/03/16 01:02:01;;;;;;;174.27;63.22;;;;;;;3.29;57.20;94009.16;5009318;28;20056;-79
2022/03/16 01:04:28;;;;;;;75.07;30.33;;;;;;;3.30;57.58;94010.72;5009663;28;20078;-79
2022/03/16 01:06:55;;;;;;;115.90;48.17;;;;;;;3.29;57.24;94009.94;5009158;28;20053;-80
2022/03/16 01:09:22;;;;;;;34.38;17.30;;;;;;;3.07;58.24;93984.00;5009079;28;20050;-79
2022/03/16 01:11:49;;;;;;;40.75;21.15;;;;;;;3.10;57.47;93988.00;5009209;28;20046;-79
2022/03/16 01:14:16;;;;;;;44.30;23.42;;;;;;;3.34;57.62;94012.84;5009361;28;20050;-80
2022/03/16 01:16:45;;;;;;;13.95;7.95;;;;;;;3.14;57.64;93973.31;5009534;28;20057;-79
2022/03/16 01:19:14;;;;;;;12.48;6.82;;;;;;;3.16;58.06;93961.25;5011176;28;20046;-79
2022/03/16 01:21:41;;;;;;;15.57;7.47;;;;;;;3.35;58.36;93985.72;5012155;28;20060;-79
2022/03/16 01:24:08;;;;;;;14.15;7.65;;;;;;;3.05;58.10;93931.78;5012065;28;20542;-80
2022/03/16 01:26:35;;;;;;;16.27;9.32;;;;;;;3.36;57.99;93984.75;5012135;28;20054;-80
2022/03/16 01:29:02;;;;;;;27.27;15.27;;;;;;;3.27;58.11;93972.94;5012028;28;20050;-80
2022/03/16 01:31:29;;;;;;;26.27;11.98;;;;;;;3.25;57.69;93954.50;5011919;28;20050;-80
2022/03/16 01:33:57;;;;;;;20.75;11.23;;;;;;;3.41;58.21;93971.63;5012105;28;20426;-80
2022/03/16 01:36:25;;;;;;;15.57;8.20;;;;;;;3.44;57.82;93959.44;5012035;28;20050;-80
2022/03/16 01:38:52;;;;;;;16.80;8.20;;;;;;;3.43;57.51;93952.75;5011852;28;20145;-79
2022/03/16 01:41:19;;;;;;;13.27;7.03;;;;;;;3.44;57.34;93954.38;5012333;28;20647;-79
2022/03/16 01:43:45;;;;;;;21.17;11.00;;;;;;;3.43;57.69;93950.19;5012438;28;20111;-79
2022/03/16 01:46:12;;;;;;;33.10;13.35;;;;;;;3.31;58.32;93921.72;5011922;28;20050;-79
2022/03/16 01:48:39;;;;;;;35.72;20.13;;;;;;;3.45;58.43;93947.53;5011835;28;20054;-80
2022/03/16 01:51:08;;;;;;;42.35;17.35;;;;;;;3.57;58.35;93955.72;5011915;28;20042;-79
2022/03/16 01:53:34;;;;;;;32.50;16.50;;;;;;;3.56;58.25;93951.59;5011413;28;20061;-79
2022/03/16 01:56:01;;;;;;;22.00;11.77;;;;;;;3.67;58.47;93955.63;5011797;28;20101;-79
2022/03/16 01:58:28;;;;;;;23.40;11.30;;;;;;;3.71;58.14;93944.22;5011422;28;20046;-79
2022/03/16 02:00:55;;;;;;;34.85;14.30;;;;;;;3.41;57.35;93885.25;5011624;28;20125;-80
2022/03/16 02:03:22;;;;;;;28.92;15.00;;;;;;;3.54;56.96;93912.81;5011761;28;20046;-79
2022/03/16 02:05:49;;;;;;;23.98;12.13;;;;;;;3.57;57.09;93910.00;5011810;28;20053;-80
2022/03/16 02:08:17;;;;;;;26.15;12.80;;;;;;;3.73;56.84;93932.97;5011558;28;20049;-80
2022/03/16 02:10:44;;;;;;;26.05;12.60;;;;;;;3.77;57.20;93938.53;5011006;28;20459;-82
2022/03/16 02:13:12;;;;;;;26.45;12.35;;;;;;;3.64;57.97;93917.78;5011134;28;20438;-80
2022/03/16 02:15:40;;;;;;;23.15;12.02;;;;;;;3.05;57.69;93836.16;5011411;28;20454;-83
2022/03/16 02:18:07;;;;;;;25.05;12.40;;;;;;;3.58;57.06;93927.63;5011375;28;20058;-82
2022/03/16 02:20:34;;;;;;;22.80;11.35;;;;;;;2.97;59.29;93846.25;5011345;28;20060;-82
2022/03/16 02:23:04;;;;;;;21.35;11.02;;;;;;;2.88;58.89;93836.97;5010789;28;20824;-82
2022/03/16 02:25:33;;;;;;;21.83;11.00;;;;;;;3.51;59.05;93931.69;5011110;28;20053;-82
2022/03/16 02:28:00;;;;;;;26.58;14.68;;;;;;;3.37;59.09;93905.09;5010638;28;20050;-83
2022/03/16 02:30:29;;;;;;;24.85;14.98;;;;;;;2.78;60.77;93842.13;5010861;28;20046;-83
2022/03/16 02:32:56;;;;;;;35.65;16.75;;;;;;;2.91;61.30;93872.19;5010808;28;20056;-82
2022/03/16 02:35:24;;;;;;;36.65;17.15;;;;;;;2.92;62.47;93897.44;5010949;28;20499;-83
2022/03/16 02:37:51;;;;;;;31.10;14.95;;;;;;;2.53;63.21;93862.19;5010954;28;20060;-83
2022/03/16 02:40:22;;;;;;;36.90;16.75;;;;;;;2.83;64.07;93933.03;5011290;28;20104;-81
2022/03/16 02:42:49;;;;;;;62.58;25.45;;;;;;;2.44;66.60;93917.09;5010514;28;20130;-80
2022/03/16 02:45:16;;;;;;;71.05;26.48;;;;;;;2.13;65.59;93880.16;5010442;28;20515;-80
2022/03/16 02:47:44;;;;;;;76.40;32.30;;;;;;;2.22;67.24;93930.97;5010302;28;20084;-80
2022/03/16 02:50:12;;;;;;;63.97;28.05;;;;;;;2.32;65.44;93908.88;5010668;28;20041;-83
2022/03/16 02:52:39;;;;;;;75.18;31.88;;;;;;;1.87;67.27;93847.09;5010676;28;20061;-83
2022/03/16 02:55:07;;;;;;;73.95;31.25;;;;;;;2.04;66.22;93887.81;5009972;28;20050;-83
2022/03/16 02:57:36;;;;;;;76.30;37.70;;;;;;;2.11;66.78;93911.66;5009820;28;20506;-83
2022/03/16 03:00:04;;;;;;;68.60;33.05;;;;;;;1.83;66.51;93902.31;5009614;28;20045;-82
2022/03/16 03:02:31;;;;;;;65.80;32.33;;;;;;;1.70;66.13;93877.28;5009764;28;20049;-83
2022/03/16 03:04:58;;;;;;;65.78;32.78;;;;;;;1.67;66.36;93879.28;5010065;28;20054;-82
2022/03/16 03:07:25;;;;;;;64.30;30.77;;;;;;;1.87;66.26;93900.28;5010273;28;20491;-83
2022/03/16 03:09:52;;;;;;;57.88;30.50;;;;;;;1.75;66.09;93879.38;5009974;28;20042;-83
2022/03/16 03:12:19;;;;;;;62.67;30.08;;;;;;;1.66;66.06;93848.09;5010263;28;20521;-84
2022/03/16 03:14:48;;;;;;;59.00;30.13;;;;;;;1.30;66.54;93815.03;5009710;28;20054;-83
2022/03/16 03:17:15;;;;;;;64.38;30.55;;;;;;;1.42;66.57;93836.72;5012922;28;20483;-83
2022/03/16 03:19:43;;;;;;;60.83;31.50;;;;;;;1.22;67.56;93813.19;5009990;28;20046;-83
2022/03/16 03:22:10;;;;;;;64.28;32.55;;;;;;;1.30;66.28;93805.69;5010028;28;20107;-84
2022/03/16 03:24:39;;;;;;;81.45;38.30;;;;;;;1.44;66.78;93821.38;5007231;28;20042;-84
2022/03/16 03:27:07;;;;;;;73.10;35.70;;;;;;;1.21;67.24;93791.34;5009990;28;20074;-84
2022/03/16 03:29:33;;;;;;;70.07;34.03;;;;;;;1.43;68.08;93832.47;5009933;28;20053;-81
2022/03/16 03:32:02;;;;;;;212.40;103.80;;;;;;;1.64;67.53;93869.41;5009451;28;20049;-82
2022/03/16 03:34:28;;;;;;;408.88;168.63;;;;;;;1.27;67.19;93808.50;5009899;28;20403;-82
2022/03/16 03:36:55;;;;;;;476.42;203.52;;;;;;;1.52;67.14;93836.66;5009551;28;20053;-83
2022/03/16 03:39:22;;;;;;;68.90;34.58;;;;;;;1.68;66.62;93865.69;5011508;28;20486;-83
2022/03/16 03:41:49;;;;;;;76.20;37.63;;;;;;;1.72;66.67;93879.69;5009142;28;20056;-83
2022/03/16 03:44:16;;;;;;;174.10;78.50;;;;;;;1.23;67.15;93804.66;5009033;28;20081;-83
2022/03/16 03:46:43;;;;;;;84.63;40.03;;;;;;;1.28;68.68;93847.25;5009264;28;20476;-83
2022/03/16 03:49:11;;;;;;;119.90;62.22;;;;;;;1.31;68.39;93842.72;5009665;28;20053;-83
2022/03/16 03:51:38;;;;;;;78.10;34.95;;;;;;;1.54;67.61;93880.41;5007002;28;20045;-83
2022/03/16 03:54:05;;;;;;;82.20;38.55;;;;;;;1.56;68.17;93867.56;5009392;28;20049;-83
2022/03/16 03:56:32;;;;;;;71.13;37.28;;;;;;;1.69;67.80;93873.16;5009262;28;20080;-81
2022/03/16 03:58:59;;;;;;;78.22;36.13;;;;;;;1.50;68.09;93856.28;5008760;28;20415;-80
2022/03/16 04:01:26;;;;;;;80.68;34.70;;;;;;;1.29;69.74;93841.28;5008638;28;20534;-80
2022/03/16 04:03:52;;;;;;;73.70;31.73;;;;;;;1.29;71.18;93869.13;5008810;28;20096;-81
2022/03/16 04:06:21;;;;;;;88.90;37.95;;;;;;;1.21;71.02;93849.56;5009415;28;20052;-80
2022/03/16 04:08:47;;;;;;;79.28;31.70;;;;;;;1.23;70.47;93855.28;5009288;28;20061;-81
2022/03/16 04:11:14;;;;;;;71.43;31.70;;;;;;;1.22;71.58;93868.88;5009312;28;20046;-81
2022/03/16 04:13:41;;;;;;;86.95;38.97;;;;;;;1.27;70.50;93864.19;5008966;28;20061;-80
2022/03/16 04:16:08;;;;;;;97.43;47.22;;;;;;;1.33;71.90;93861.13;5009322;28;20054;-80
2022/03/16 04:18:35;;;;;;;92.00;46.38;;;;;;;1.04;71.67;93808.03;5009532;28;20422;-80
2022/03/16 04:21:02;;;;;;;80.88;33.42;;;;;;;0.89;70.69;93790.72;5009469;28;20054;-83
2022/03/16 04:23:30;;;;;;;80.80;31.92;;;;;;;1.15;70.88;93848.34;5009332;28;20507;-83
2022/03/16 04:25:57;;;;;;;57.30;28.35;;;;;;;0.61;71.21;93770.41;5010552;28;20046;-82
2022/03/16 04:28:24;;;;;;;62.08;29.55;;;;;;;0.97;71.70;93825.47;5011152;28;20053;-82
2022/03/16 04:30:53;;;;;;;61.33;30.02;;;;;;;1.00;71.31;93821.88;5009704;28;20471;-84
2022/03/16 04:33:20;;;;;;;56.90;28.20;;;;;;;0.91;70.08;93790.59;5009797;28;20050;-83
2022/03/16 04:35:46;;;;;;;65.85;31.95;;;;;;;1.25;70.29;93840.72;5009916;28;20054;-81
2022/03/16 04:38:13;;;;;;;65.93;32.55;;;;;;;1.10;70.17;93830.25;5009464;28;20566;-81
2022/03/16 04:40:42;;;;;;;61.72;32.20;;;;;;;0.86;69.92;93782.63;5009168;28;20112;-81
2022/03/16 04:43:08;;;;;;;66.05;33.22;;;;;;;1.06;70.34;93806.94;5009519;28;20088;-81
2022/03/16 04:45:38;;;;;;;59.67;30.88;;;;;;;0.80;70.11;93748.56;5009900;28;20061;-82
2022/03/16 04:48:07;;;;;;;65.18;30.58;;;;;;;1.45;69.77;93830.56;5009177;28;20061;-83
2022/03/16 04:50:34;;;;;;;64.93;30.80;;;;;;;0.73;69.58;93714.63;5009252;28;20084;-82
2022/03/16 04:53:01;;;;;;;64.35;30.10;;;;;;;1.46;69.24;93827.09;5011608;28;20145;-81
2022/03/16 04:55:28;;;;;;;67.10;29.25;;;;;;;1.30;70.70;93805.69;5013414;28;20458;-82
2022/03/16 04:57:57;;;;;;;93.30;39.03;;;;;;;1.46;70.15;93824.56;5013373;28;20073;-82
2022/03/16 05:00:24;;;;;;;98.25;38.47;;;;;;;0.28;71.19;93686.50;5012524;28;20104;-82
2022/03/16 05:02:51;;;;;;;76.80;33.67;;;;;;;1.20;71.10;93790.53;5012717;28;20053;-82
2022/03/16 05:05:18;;;;;;;99.25;43.85;;;;;;;1.39;71.09;93813.41;5012377;28;20136;-82
2022/03/16 05:07:45;;;;;;;92.95;38.95;;;;;;;0.63;71.66;93700.28;5012708;28;20062;-82
2022/03/16 05:10:12;;;;;;;83.60;36.58;;;;;;;1.40;71.32;93810.75;5012359;28;20561;-82
2022/03/16 05:12:40;;;;;;;86.60;39.47;;;;;;;1.36;71.80;93790.88;5012629;28;20056;-82
2022/03/16 05:15:11;;;;;;;99.32;44.53;;;;;;;1.18;71.66;93741.00;5012176;28;20054;-82
2022/03/16 05:17:38;;;;;;;88.22;38.78;;;;;;;1.35;72.33;93769.84;5012194;28;20120;-82
2022/03/16 05:20:06;;;;;;;97.13;38.95;;;;;;;1.81;71.52;93812.97;5012297;28;20307;-82
2022/03/16 05:22:40;;;;;;;98.38;40.75;;;;;;;1.69;71.88;93788.75;5008515;28;20050;-82
2022/03/16 05:25:08;;;;;;;100.38;38.30;;;;;;;1.98;70.84;93815.69;5010832;28;20046;-82
2022/03/16 05:27:35;;;;;;;76.90;36.63;;;;;;;1.30;70.36;93680.88;5012077;28;20050;-82
2022/03/16 05:30:02;;;;;;;96.03;41.85;;;;;;;2.05;71.42;93780.44;5011975;28;20049;-82
2022/03/16 05:32:31;;;;;;;123.45;53.67;;;;;;;1.71;71.61;93728.66;5011972;28;20053;-82
2022/03/16 05:34:59;;;;;;;88.93;40.65;;;;;;;1.92;72.11;93771.47;5011849;28;20054;-81
2022/03/16 05:37:26;;;;;;;102.22;43.80;;;;;;;2.18;71.94;93797.84;5011930;28;20396;-82
2022/03/16 05:39:53;;;;;;;94.55;42.85;;;;;;;2.22;71.33;93773.81;5011681;28;20056;-82
2022/03/16 05:42:20;;;;;;;61.78;30.25;;;;;;;2.38;67.57;93771.44;5011516;28;20085;-82
2022/03/16 05:44:47;;;;;;;36.70;17.90;;;;;;;2.37;65.72;93747.00;5011454;28;20053;-82
2022/03/16 05:47:14;;;;;;;28.48;14.63;;;;;;;2.28;63.88;93714.94;5011731;28;20557;-82
2022/03/16 05:49:42;;;;;;;20.05;10.77;;;;;;;2.75;62.79;93739.22;5012287;28;20056;-82
2022/03/16 05:52:09;;;;;;;18.80;10.73;;;;;;;3.02;60.85;93757.75;5012077;28;20578;-82
2022/03/16 05:54:36;;;;;;;24.52;12.55;;;;;;;3.17;59.59;93767.38;5012123;28;20046;-82
2022/03/16 05:57:02;;;;;;;78.93;33.22;;;;;;;2.96;58.65;93711.91;5011746;28;20570;-82
2022/03/16 05:59:29;;;;;;;24.55;12.15;;;;;;;2.83;58.39;93659.81;5011864;28;20046;-82
2022/03/16 06:01:57;;;;;;;19.20;9.45;;;;;;;3.60;57.11;93737.75;5011964;28;20426;-82
2022/03/16 06:04:24;;;;;;;20.75;10.30;;;;;;;3.52;56.55;93703.91;5011148;28;20058;-82
2022/03/16 06:06:52;;;;;;;16.63;9.20;;;;;;;3.76;56.35;93715.88;5011526;28;20041;-82
2022/03/16 06:09:19;;;;;;;17.05;8.93;;;;;;;3.97;55.54;93735.78;5011511;28;20049;-83
2022/03/16 06:11:45;;;;;;;17.40;9.60;;;;;;;3.97;55.88;93712.91;5011463;28;20132;-81
2022/03/16 06:14:12;;;;;;;17.90;9.05;;;;;;;4.30;55.34;93744.41;5011242;28;20054;-81
2022/03/16 06:16:39;;;;;;;22.50;9.70;;;;;;;3.94;54.73;93687.78;5011736;28;20053;-81
2022/03/16 06:19:06;;;;;;;15.68;8.52;;;;;;;4.48;53.86;93750.16;5011187;28;20046;-81
2022/03/16 06:21:33;;;;;;;13.60;7.97;;;;;;;4.43;53.50;93734.56;5011314;28;20064;-81
2022/03/16 06:24:01;;;;;;;14.63;7.40;;;;;;;4.64;53.03;93751.09;5011355;28;20108;-81
2022/03/16 06:26:28;;;;;;;12.95;7.13;;;;;;;4.38;52.68;93706.25;5011156;28;20046;-80
2022/03/16 06:28:55;;;;;;;11.77;7.22;;;;;;;4.73;51.39;93742.53;5010853;28;20078;-81
2022/03/16 06:31:22;;;;;;;15.85;8.60;;;;;;;4.55;51.15;93699.44;5010600;28;20046;-81
2022/03/16 06:33:49;;;;;;;19.80;11.32;;;;;;;4.86;51.20;93742.00;5010645;28;20046;-80
2022/03/16 06:36:15;;;;;;;18.08;10.07;;;;;;;4.93;50.54;93740.44;5010974;28;20049;-81
2022/03/16 06:38:42;;;;;;;17.92;9.05;;;;;;;4.76;51.16;93714.19;5010780;28;20406;-80
2022/03/16 06:41:11;;;;;;;11.23;7.70;;;;;;;5.01;51.05;93744.72;5011034;28;20108;-80
2022/03/16 06:43:38;;;;;;;17.00;8.18;;;;;;;5.06;50.51;93746.78;5010798;28;20057;-82
2022/03/16 06:46:05;;;;;;;10.82;7.30;;;;;;;4.93;50.38;93716.72;5010685;28;20453;-81
2022/03/16 06:48:32;;;;;;;13.95;8.35;;;;;;;5.26;50.37;93749.75;5010403;28;20056;-81
2022/03/16 06:50:59;;;;;;;21.05;11.95;;;;;;;5.27;49.85;93741.16;5010361;28;20470;-80
2022/03/16 06:53:27;;;;;;;14.25;9.27;;;;;;;5.15;49.58;93722.09;5010343;28;20041;-80
2022/03/16 06:55:54;;;;;;;47.63;27.48;;;;;;;5.13;49.89;93701.09;5010322;28;20045;-80
2022/03/16 06:58:23;;;;;;;24.08;14.82;;;;;;;5.18;49.50;93696.28;5010467;28;20058;-81
2022/03/16 07:00:50;;;;;;;18.65;10.73;;;;;;;5.52;49.49;93746.19;5010474;28;20073;-81
2022/03/16 07:03:16;;;;;;;16.63;11.60;;;;;;;5.58;49.39;93742.97;5010495;28;20398;-81
2022/03/16 07:05:44;;;;;;;20.80;13.10;;;;;;;5.61;49.27;93739.28;5010327;28;20045;-81
2022/03/16 07:08:12;;;;;;;20.83;11.77;;;;;;;5.20;49.01;93679.88;5010474;28;20049;-81
2022/03/16 07:10:42;;;;;;;21.02;11.32;;;;;;;5.00;49.35;93638.72;5010356;28;20049;-82
2022/03/16 07:13:11;;;;;;;22.13;14.75;;;;;;;5.53;49.08;93709.53;5010266;28;20488;-82
2022/03/16 07:15:40;;;;;;;26.33;14.32;;;;;;;5.76;48.76;93734.28;5008020;28;20097;-81
2022/03/16 07:18:07;;;;;;;23.08;11.20;;;;;;;5.60;49.26;93707.13;5008073;28;20057;-81
2022/03/16 07:20:34;;;;;;;26.75;13.85;;;;;;;5.39;49.31;93669.47;5008907;28;20050;-81
2022/03/16 07:23:05;;;;;;;18.52;10.70;;;;;;;5.77;49.62;93728.22;5010105;28;20392;-81
2022/03/16 07:25:32;;;;;;;20.50;12.75;;;;;;;5.70;49.44;93706.91;5009883;28;20566;-81
2022/03/16 07:27:59;;;;;;;17.52;10.45;;;;;;;5.88;49.31;93734.72;5009739;28;20520;-80
2022/03/16 07:30:26;;;;;;;31.10;16.83;;;;;;;6.00;49.18;93733.38;5010244;28;20054;-81
2022/03/16 07:32:55;;;;;;;26.75;13.27;;;;;;;5.79;49.06;93697.47;5010235;28;20181;-80
2022/03/16 07:35:26;;;;;;;25.00;14.25;;;;;;;5.87;49.28;93700.75;5010049;28;20053;-80
2022/03/16 07:37:54;;;;;;;26.75;14.55;;;;;;;6.06;49.12;93729.38;5010513;28;20141;-81
2022/03/16 07:40:22;;;;;;;24.55;13.80;;;;;;;6.06;48.83;93708.19;5009542;28;20526;-81
2022/03/16 07:42:50;;;;;;;28.92;17.10;;;;;;;5.49;48.31;93624.19;5009796;28;20053;-81
2022/03/16 07:45:18;;;;;;;20.98;11.85;;;;;;;6.19;48.78;93720.34;5010005;28;20057;-81
2022/03/16 07:47:46;;;;;;;22.65;13.77;;;;;;;5.68;48.62;93635.72;5009416;28;20458;-81
2022/03/16 07:50:14;;;;;;;24.73;15.88;;;;;;;6.07;48.65;93702.91;5009596;28;20050;-82
2022/03/16 07:52:41;;;;;;;22.05;14.63;;;;;;;6.11;49.22;93703.38;5009567;28;20053;-81
2022/03/16 07:55:09;;;;;;;20.67;11.48;;;;;;;5.96;49.14;93673.47;5009309;28;20064;-81
2022/03/16 07:57:37;;;;;;;21.20;13.15;;;;;;;6.24;49.36;93705.34;5009372;28;20432;-81
2022/03/16 08:00:04;;;;;;;26.73;15.80;;;;;;;6.33;49.66;93703.53;5009358;28;20483;-81
2022/03/16 08:02:31;;;;;;;22.50;12.68;;;;;;;6.24;49.48;93665.31;5008881;28;20050;-82
2022/03/16 08:05:00;;;;;;;19.40;10.38;;;;;;;6.51;49.30;93683.63;5009381;28;20058;-81
2022/03/16 08:07:28;;;;;;;23.67;11.60;;;;;;;6.59;48.86;93675.09;5009168;28;20507;-81
2022/03/16 08:09:56;;;;;;;39.92;21.98;;;;;;;6.81;48.71;93696.44;5009034;28;20057;-81
2022/03/16 08:12:23;;;;;;;42.25;20.77;;;;;;;6.95;48.23;93684.66;5008894;28;20050;-81
2022/03/16 08:14:50;;;;;;;23.70;12.32;;;;;;;6.81;47.57;93654.81;5008765;28;20058;-81
2022/03/16 08:17:17;;;;;;;16.95;10.18;;;;;;;7.16;46.98;93683.16;5009054;28;20148;-81
2022/03/16 08:19:44;;;;;;;17.88;10.02;;;;;;;7.08;46.24;93661.06;5008844;28;20060;-81
2022/03/16 08:22:11;;;;;;;19.75;11.00;;;;;;;7.34;46.41;93682.81;5009985;28;20054;-82
2022/03/16 08:24:39;;;;;;;19.73;9.43;;;;;;;7.45;45.71;93680.78;5009871;28;20060;-82
2022/03/16 08:27:07;;;;;;;17.08;8.98;;;;;;;6.74;45.03;93583.22;5010844;28;20630;-83
2022/03/16 08:29:34;;;;;;;28.88;15.73;;;;;;;7.20;44.61;93648.63;5012887;28;20426;-82
2022/03/16 08:32:03;;;;;;;26.98;15.32;;;;;;;7.46;44.17;93683.13;5013586;28;20077;-83
2022/03/16 08:34:30;;;;;;;28.45;14.88;;;;;;;7.52;44.34;93685.94;5013850;28;20064;-83
2022/03/16 08:36:57;;;;;;;29.48;15.25;;;;;;;7.55;43.95;93675.38;5013496;28;20052;-83
2022/03/16 08:39:24;;;;;;;25.15;13.65;;;;;;;7.74;44.37;93681.69;5013273;28;20057;-83
2022/03/16 08:41:52;;;;;;;20.48;12.02;;;;;;;7.86;43.47;93682.00;5013587;28;20057;-83
2022/03/16 08:44:18;;;;;;;20.33;11.35;;;;;;;7.70;43.60;93637.00;5013599;28;20053;-84
2022/03/16 08:46:45;;;;;;;17.23;9.70;;;;;;;8.10;42.85;93678.31;5013142;28;20500;-83
2022/03/16 08:49:12;;;;;;;31.48;17.10;;;;;;;7.86;42.66;93613.75;5013132;28;20507;-83
2022/03/16 08:51:40;;;;;;;26.92;16.65;;;;;;;8.12;42.76;93632.88;5012791;28;20104;-83
2022/03/16 08:54:07;;;;;;;31.42;17.27;;;;;;;8.48;42.09;93656.75;5012966;28;20046;-84
2022/03/16 08:56:34;;;;;;;18.38;10.38;;;;;;;8.22;42.21;93619.75;5012691;28;20050;-84
2022/03/16 08:59:02;;;;;;;41.00;22.70;;;;;;;8.46;41.99;93635.69;5012999;28;20541;-84
2022/03/16 09:01:29;;;;;;;22.67;12.57;;;;;;;8.57;41.86;93642.13;5012442;28;20050;-84
2022/03/16 09:03:56;;;;;;;19.35;11.75;;;;;;;8.28;41.92;93607.97;5012397;28;20049;-84
2022/03/16 09:06:23;;;;;;;14.57;8.05;;;;;;;8.65;42.27;93661.66;5012515;28;20053;-83
2022/03/16 09:08:50;;;;;;;17.20;11.55;;;;;;;8.52;42.39;93640.09;5012701;28;20461;-84
2022/03/16 09:11:17;;;;;;;21.17;11.55;;;;;;;8.38;42.32;93605.13;5012313;28;20056;-84
2022/03/16 09:13:44;;;;;;;14.45;9.65;;;;;;;8.38;41.73;93608.44;5012117;28;20057;-84
2022/03/16 09:16:12;;;;;;;15.23;7.75;;;;;;;8.73;41.90;93660.72;5013149;28;20049;-84
2022/03/16 09:18:39;;;;;;;18.33;7.72;;;;;;;8.11;41.43;93581.88;5013001;28;20438;-84
2022/03/16 09:21:05;;;;;;;13.05;7.45;;;;;;;8.73;41.86;93665.84;5012524;28;20406;-84
2022/03/16 09:23:32;;;;;;;15.43;9.18;;;;;;;8.69;42.45;93667.97;5012278;28;20050;-84
2022/03/16 09:26:00;;;;;;;17.48;9.15;;;;;;;7.83;42.09;93546.81;5012222;28;20053;-84
2022/03/16 09:28:27;;;;;;;21.88;11.05;;;;;;;7.98;41.92;93567.22;5012078;28;20054;-85
2022/03/16 09:30:54;;;;;;;15.40;9.05;;;;;;;8.88;42.08;93670.88;5012524;28;20521;-85
2022/03/16 09:33:23;;;;;;;20.00;11.18;;;;;;;8.38;41.81;93585.41;5012350;28;20838;-85
2022/03/16 09:35:51;;;;;;;19.27;10.32;;;;;;;9.19;42.26;93670.47;5011954;28;20053;-85
2022/03/16 09:38:18;;;;;;;14.05;8.18;;;;;;;9.16;41.03;93637.53;5011989;28;20133;-84
2022/03/16 09:40:47;;;;;;;11.98;6.50;;;;;;;9.07;41.02;93605.34;5012219;28;20104;-85
2022/03/16 09:43:19;;;;;;;8.52;5.63;;;;;;;9.45;39.67;93656.19;5012147;28;20054;-84
2022/03/16 09:45:51;;;;;;;10.45;6.40;;;;;;;9.48;39.80;93666.06;5011725;28;20049;-84
2022/03/16 09:48:19;;;;;;;10.40;6.13;;;;;;;9.06;40.06;93601.19;5020878;28;20069;-84
2022/03/16 09:50:47;;;;;;;12.80;7.28;;;;;;;9.47;39.75;93664.50;5009935;28;20048;-84
2022/03/16 09:53:15;;;;;;;12.52;7.05;;;;;;;9.11;40.01;93598.09;5011390;28;20045;-85
2022/03/16 09:55:42;;;;;;;13.45;7.18;;;;;;;9.31;40.02;93618.66;5011443;28;20053;-85
2022/03/16 09:58:09;;;;;;;11.93;6.22;;;;;;;9.08;39.77;93578.75;5011277;28;20458;-85
2022/03/16 10:00:38;;;;;;;12.32;6.80;;;;;;;9.69;39.33;93655.88;5011670;28;20470;-84
2022/03/16 10:03:05;;;;;;;12.93;6.40;;;;;;;9.26;39.68;93603.84;5011051;28;20137;-84
2022/03/16 10:05:32;;;;;;;10.68;5.40;;;;;;;9.24;39.55;93593.00;5011381;28;20050;-84
2022/03/16 10:08:02;;;;;;;9.25;5.45;;;;;;;9.62;39.67;93631.00;5010793;28;20145;-84
2022/03/16 10:13:21;;;;;;;13.43;8.20;;;;;;;9.81;39.75;93643.28;5010913;28;20064;-85
2022/03/16 10:15:48;;;;;;;10.82;6.85;;;;;;;9.81;39.30;93653.56;5011049;28;20076;-84
2022/03/16 10:18:16;;;;;;;12.18;6.47;;;;;;;9.41;39.26;93585.78;5010789;28;20052;-84
2022/03/16 10:20:44;;;;;;;10.40;6.80;;;;;;;9.38;39.54;93583.56;5011254;28;20046;-84
2022/03/16 10:23:14;;;;;;;15.60;6.85;;;;;;;9.68;39.58;93620.94;5010747;28;20056;-85
2022/03/16 10:25:42;;;;;;;10.93;6.20;;;;;;;9.39;39.28;93579.25;5011052;28;20088;-85
2022/03/16 10:28:12;;;;;;;11.15;6.10;;;;;;;9.60;39.53;93611.66;5011190;28;20415;-85
2022/03/16 10:30:56;;;;;;;15.32;6.20;;;;;;;9.53;39.06;93595.47;5010909;28;20046;-85
2022/03/16 10:33:25;;;;;;;12.63;7.00;;;;;;;9.55;39.04;93590.94;5009711;28;20463;-84
2022/03/16 10:36:07;;;;;;;9.93;6.32;;;;;;;9.58;39.28;93583.63;5011020;28;20049;-84
2022/03/16 10:38:40;;;;;;;17.00;6.90;;;;;;;10.02;39.54;93643.13;5011171;28;20046;-83
2022/03/16 10:46:34;;;;;;;12.75;8.18;;;;;;;9.73;39.08;93598.06;5024021;28;20046;-83
2022/03/16 10:46:48;;;;;;;13.73;6.87;;;;;;;9.63;39.71;93575.38;5010876;28;20053;-84
2022/03/16 10:49:20;;;;;;;13.15;5.82;;;;;;;9.71;39.65;93575.19;5010410;28;20107;-84
2022/03/16 10:51:59;;;;;;;11.90;6.38;;;;;;;10.12;39.56;93622.22;5010084;28;20486;-83
2022/03/16 10:54:28;;;;;;;11.23;6.75;;;;;;;9.69;39.50;93555.84;5010977;28;20072;-83
2022/03/16 10:57:02;;;;;;;18.90;8.57;;;;;;;9.61;39.37;93534.53;5011055;28;20065;-83
2022/03/16 10:59:30;;;;;;;11.90;5.93;;;;;;;10.12;39.67;93596.53;5010981;28;20568;-83
2022/03/16 11:02:03;;;;;;;6.70;4.03;;;;;;;10.01;40.04;93579.16;5011245;28;20057;-83
2022/03/16 11:04:31;;;;;;;8.40;4.85;;;;;;;9.82;39.85;93521.72;5011168;28;20507;-83
2022/03/16 11:07:00;;;;;;;9.27;4.60;;;;;;;10.40;40.61;93572.44;5005566;28;20073;-83
2022/03/16 11:09:30;;;;;;;7.53;4.82;;;;;;;10.29;40.53;93524.25;5010769;28;20144;-84
2022/03/16 11:14:44;;;;;;;10.85;4.88;;;;;;;11.00;40.09;93546.81;5010451;28;20060;-84
2022/03/16 11:17:12;;;;;;;8.10;4.18;;;;;;;11.21;41.00;93546.53;5010859;28;20148;-83
2022/03/16 11:19:44;;;;;;;12.20;7.30;;;;;;;11.42;40.58;93541.28;5011232;28;20058;-83
2022/03/16 11:22:15;;;;;;;7.32;4.35;;;;;;;11.27;39.45;93503.00;5010423;28;20045;-83
2022/03/16 11:24:49;;;;;;;8.65;4.82;;;;;;;11.23;39.34;93452.00;5006992;28;20790;-84
2022/03/16 11:27:45;;;;;;;15.40;7.32;;;;;;;12.12;40.21;93543.06;5009413;28;20136;-83
2022/03/16 11:30:25;;;;;;;16.85;7.40;;;;;;;12.03;40.00;93474.75;5008295;28;20056;-83
2022/03/16 11:33:00;;;;;;;9.07;4.55;;;;;;;11.77;38.67;93476.56;5010592;28;20103;-84
2022/03/16 11:35:44;;;;;;;11.23;5.10;;;;;;;12.38;39.99;93525.81;5010036;28;20056;-84
2022/03/16 11:38:14;;;;;;;11.70;6.28;;;;;;;12.37;38.24;93462.38;5010172;28;20057;-85